sensor_id;sensor_type;location;lat;lon;timestamp;temperature;humidity
33528;DHT22;19861;42.868;74.608;2022-07-29T00:00:59;25.30;41.10
33528;DHT22;19861;42.868;74.608;2022-07-29T00:03:25;25.20;41.00
33528;DHT22;19861;42.868;74.608;2022-07-29T00:05:51;25.00;41.40
33528;DHT22;19861;42.868;74.608;2022-07-29T00:08:18;25.20;41.50
33528;DHT22;19861;42.868;74.608;2022-07-29T00:10:45;25.20;41.10
33528;DHT22;19861;42.868;74.608;2022-07-29T00:13:11;25.20;41.10
33528;DHT22;19861;42.868;74.608;2022-07-29T00:15:37;25.20;41.30
33528;DHT22;19861;42.868;74.608;2022-07-29T00:18:03;25.20;41.20
33528;DHT22;19861;42.868;74.608;2022-07-29T00:20:29;25.20;41.50
33528;DHT22;19861;42.868;74.608;2022-07-29T00:22:55;25.20;41.60
33528;DHT22;19861;42.868;74.608;2022-07-29T00:25:21;25.30;41.40
33528;DHT22;19861;42.868;74.608;2022-07-29T00:27:47;25.40;41.40
33528;DHT22;19861;42.868;74.608;2022-07-29T00:30:13;25.40;41.70
33528;DHT22;19861;42.868;74.608;2022-07-29T00:32:39;25.50;41.50
33528;DHT22;19861;42.868;74.608;2022-07-29T00:35:06;25.50;41.70
33528;DHT22;19861;42.868;74.608;2022-07-29T00:37:50;25.60;41.50
33528;DHT22;19861;42.868;74.608;2022-07-29T00:40:16;25.70;41.40
33528;DHT22;19861;42.868;74.608;2022-07-29T00:42:47;25.80;42.10
33528;DHT22;19861;42.868;74.608;2022-07-29T00:45:14;25.90;41.60
33528;DHT22;19861;42.868;74.608;2022-07-29T00:47:41;26.00;41.40
33528;DHT22;19861;42.868;74.608;2022-07-29T00:50:10;26.20;42.00
33528;DHT22;19861;42.868;74.608;2022-07-29T00:52:38;26.60;41.00
33528;DHT22;19861;42.868;74.608;2022-07-29T00:55:06;26.90;41.10
33528;DHT22;19861;42.868;74.608;2022-07-29T00:57:34;27.30;40.50
33528;DHT22;19861;42.868;74.608;2022-07-29T01:00:00;27.60;39.70
33528;DHT22;19861;42.868;74.608;2022-07-29T01:02:26;28.00;39.90
33528;DHT22;19861;42.868;74.608;2022-07-29T01:04:53;28.30;38.40
33528;DHT22;19861;42.868;74.608;2022-07-29T01:07:19;28.60;38.80
33528;DHT22;19861;42.868;74.608;2022-07-29T01:09:46;28.90;37.90
33528;DHT22;19861;42.868;74.608;2022-07-29T01:12:18;29.30;37.20
33528;DHT22;19861;42.868;74.608;2022-07-29T01:14:45;29.70;37.10
33528;DHT22;19861;42.868;74.608;2022-07-29T01:18:46;30.40;36.10
33528;DHT22;19861;42.868;74.608;2022-07-29T01:21:00;30.70;35.10
33528;DHT22;19861;42.868;74.608;2022-07-29T01:23:42;30.90;34.50
33528;DHT22;19861;42.868;74.608;2022-07-29T01:32:02;31.20;34.30
33528;DHT22;19861;42.868;74.608;2022-07-29T01:34:48;31.30;34.20
33528;DHT22;19861;42.868;74.608;2022-07-29T01:40:25;31.50;34.00
33528;DHT22;19861;42.868;74.608;2022-07-29T01:42:55;31.50;34.20
33528;DHT22;19861;42.868;74.608;2022-07-29T01:45:40;31.60;34.10
33528;DHT22;19861;42.868;74.608;2022-07-29T01:51:02;31.70;34.10
33528;DHT22;19861;42.868;74.608;2022-07-29T01:53:34;31.90;33.40
33528;DHT22;19861;42.868;74.608;2022-07-29T01:56:02;31.70;33.90
33528;DHT22;19861;42.868;74.608;2022-07-29T01:58:29;31.90;34.10
33528;DHT22;19861;42.868;74.608;2022-07-29T02:00:58;31.90;33.30
33528;DHT22;19861;42.868;74.608;2022-07-29T02:03:26;32.00;33.40
33528;DHT22;19861;42.868;74.608;2022-07-29T02:05:53;32.10;33.30
33528;DHT22;19861;42.868;74.608;2022-07-29T02:08:21;32.40;32.80
33528;DHT22;19861;42.868;74.608;2022-07-29T02:10:50;32.70;32.30
33528;DHT22;19861;42.868;74.608;2022-07-29T02:13:17;33.10;32.00
33528;DHT22;19861;42.868;74.608;2022-07-29T02:15:44;33.90;31.70
33528;DHT22;19861;42.868;74.608;2022-07-29T02:18:16;34.00;31.30
33528;DHT22;19861;42.868;74.608;2022-07-29T02:20:51;34.30;31.20
33528;DHT22;19861;42.868;74.608;2022-07-29T02:23:23;34.40;31.20
33528;DHT22;19861;42.868;74.608;2022-07-29T02:25:53;34.70;30.80
33528;DHT22;19861;42.868;74.608;2022-07-29T02:28:20;35.10;30.00
33528;DHT22;19861;42.868;74.608;2022-07-29T02:30:48;35.10;29.90
33528;DHT22;19861;42.868;74.608;2022-07-29T02:33:16;35.00;29.90
33528;DHT22;19861;42.868;74.608;2022-07-29T02:35:45;35.30;30.00
33528;DHT22;19861;42.868;74.608;2022-07-29T02:38:16;35.20;29.80
33528;DHT22;19861;42.868;74.608;2022-07-29T02:41:06;33.80;30.60
33528;DHT22;19861;42.868;74.608;2022-07-29T02:43:34;33.80;31.90
33528;DHT22;19861;42.868;74.608;2022-07-29T02:46:04;34.10;30.80
33528;DHT22;19861;42.868;74.608;2022-07-29T02:48:41;34.40;30.80
33528;DHT22;19861;42.868;74.608;2022-07-29T02:51:13;33.20;32.20
33528;DHT22;19861;42.868;74.608;2022-07-29T02:53:44;34.10;31.70
33528;DHT22;19861;42.868;74.608;2022-07-29T02:56:14;33.90;31.40
33528;DHT22;19861;42.868;74.608;2022-07-29T02:58:46;34.10;31.40
33528;DHT22;19861;42.868;74.608;2022-07-29T03:01:18;34.50;31.00
33528;DHT22;19861;42.868;74.608;2022-07-29T03:03:46;33.80;31.70
33528;DHT22;19861;42.868;74.608;2022-07-29T03:06:16;34.50;31.40
33528;DHT22;19861;42.868;74.608;2022-07-29T03:08:43;35.20;30.20
33528;DHT22;19861;42.868;74.608;2022-07-29T03:11:10;35.70;30.00
33528;DHT22;19861;42.868;74.608;2022-07-29T03:13:37;35.90;29.20
33528;DHT22;19861;42.868;74.608;2022-07-29T03:16:05;36.10;29.50
33528;DHT22;19861;42.868;74.608;2022-07-29T03:18:32;36.30;29.40
33528;DHT22;19861;42.868;74.608;2022-07-29T03:20:58;36.50;28.90
33528;DHT22;19861;42.868;74.608;2022-07-29T03:23:25;36.50;29.00
33528;DHT22;19861;42.868;74.608;2022-07-29T03:25:54;35.60;29.60
33528;DHT22;19861;42.868;74.608;2022-07-29T03:28:20;35.40;30.30
33528;DHT22;19861;42.868;74.608;2022-07-29T03:30:47;36.10;29.50
33528;DHT22;19861;42.868;74.608;2022-07-29T03:33:13;36.40;29.40
33528;DHT22;19861;42.868;74.608;2022-07-29T03:35:40;36.60;28.80
33528;DHT22;19861;42.868;74.608;2022-07-29T03:38:06;36.70;28.70
33528;DHT22;19861;42.868;74.608;2022-07-29T03:40:38;36.60;28.60
33528;DHT22;19861;42.868;74.608;2022-07-29T03:43:06;36.10;29.30
33528;DHT22;19861;42.868;74.608;2022-07-29T03:45:33;34.00;31.70
33528;DHT22;19861;42.868;74.608;2022-07-29T03:48:02;33.00;32.70
33528;DHT22;19861;42.868;74.608;2022-07-29T03:50:32;33.20;32.50
33528;DHT22;19861;42.868;74.608;2022-07-29T03:53:02;32.60;33.40
33528;DHT22;19861;42.868;74.608;2022-07-29T03:55:32;32.20;34.10
33528;DHT22;19861;42.868;74.608;2022-07-29T03:58:00;31.20;35.70
33528;DHT22;19861;42.868;74.608;2022-07-29T04:00:29;31.40;35.80
33528;DHT22;19861;42.868;74.608;2022-07-29T04:02:56;30.90;36.00
33528;DHT22;19861;42.868;74.608;2022-07-29T04:05:22;31.00;36.40
33528;DHT22;19861;42.868;74.608;2022-07-29T04:07:49;30.30;37.00
33528;DHT22;19861;42.868;74.608;2022-07-29T04:10:15;30.10;37.70
33528;DHT22;19861;42.868;74.608;2022-07-29T04:12:42;30.20;37.40
33528;DHT22;19861;42.868;74.608;2022-07-29T04:15:09;30.50;36.90
33528;DHT22;19861;42.868;74.608;2022-07-29T04:17:35;30.80;36.20
33528;DHT22;19861;42.868;74.608;2022-07-29T04:20:01;30.30;37.10
33528;DHT22;19861;42.868;74.608;2022-07-29T04:22:27;30.20;37.80
33528;DHT22;19861;42.868;74.608;2022-07-29T04:24:53;30.40;37.40
33528;DHT22;19861;42.868;74.608;2022-07-29T04:27:19;30.40;37.30
33528;DHT22;19861;42.868;74.608;2022-07-29T04:29:45;29.80;38.20
33528;DHT22;19861;42.868;74.608;2022-07-29T04:32:13;29.30;38.20
33528;DHT22;19861;42.868;74.608;2022-07-29T04:34:39;29.10;39.00
33528;DHT22;19861;42.868;74.608;2022-07-29T04:37:05;29.50;38.50
33528;DHT22;19861;42.868;74.608;2022-07-29T04:39:31;29.60;38.60
33528;DHT22;19861;42.868;74.608;2022-07-29T04:41:57;29.30;38.40
33528;DHT22;19861;42.868;74.608;2022-07-29T04:44:23;29.40;38.50
33528;DHT22;19861;42.868;74.608;2022-07-29T04:46:49;29.70;38.10
33528;DHT22;19861;42.868;74.608;2022-07-29T04:49:15;29.70;39.10
33528;DHT22;19861;42.868;74.608;2022-07-29T04:51:41;29.90;38.20
33528;DHT22;19861;42.868;74.608;2022-07-29T04:54:07;30.10;37.90
33528;DHT22;19861;42.868;74.608;2022-07-29T04:56:33;30.00;38.10
33528;DHT22;19861;42.868;74.608;2022-07-29T04:58:59;29.80;37.90
33528;DHT22;19861;42.868;74.608;2022-07-29T05:01:25;29.80;38.20
33528;DHT22;19861;42.868;74.608;2022-07-29T05:03:51;29.80;38.60
33528;DHT22;19861;42.868;74.608;2022-07-29T05:06:17;29.40;38.40
33528;DHT22;19861;42.868;74.608;2022-07-29T05:08:43;29.60;38.60
33528;DHT22;19861;42.868;74.608;2022-07-29T05:11:10;29.80;39.10
33528;DHT22;19861;42.868;74.608;2022-07-29T05:13:36;29.80;39.40
33528;DHT22;19861;42.868;74.608;2022-07-29T05:16:02;30.00;39.00
33528;DHT22;19861;42.868;74.608;2022-07-29T05:18:28;30.20;37.90
33528;DHT22;19861;42.868;74.608;2022-07-29T05:20:54;30.30;38.10
33528;DHT22;19861;42.868;74.608;2022-07-29T05:23:20;30.50;38.40
33528;DHT22;19861;42.868;74.608;2022-07-29T05:25:46;30.50;38.00
33528;DHT22;19861;42.868;74.608;2022-07-29T05:28:12;30.60;37.40
33528;DHT22;19861;42.868;74.608;2022-07-29T05:30:38;30.50;37.30
33528;DHT22;19861;42.868;74.608;2022-07-29T05:33:04;30.30;37.90
33528;DHT22;19861;42.868;74.608;2022-07-29T05:35:30;29.70;38.70
33528;DHT22;19861;42.868;74.608;2022-07-29T05:37:56;29.80;39.50
33528;DHT22;19861;42.868;74.608;2022-07-29T05:40:23;29.90;38.90
33528;DHT22;19861;42.868;74.608;2022-07-29T05:42:49;30.00;38.30
33528;DHT22;19861;42.868;74.608;2022-07-29T05:45:15;30.20;38.10
33528;DHT22;19861;42.868;74.608;2022-07-29T05:47:41;30.20;38.30
33528;DHT22;19861;42.868;74.608;2022-07-29T05:50:07;29.90;38.50
33528;DHT22;19861;42.868;74.608;2022-07-29T05:52:33;29.20;39.40
33528;DHT22;19861;42.868;74.608;2022-07-29T05:54:59;28.90;40.80
33528;DHT22;19861;42.868;74.608;2022-07-29T05:57:28;29.20;40.60
33528;DHT22;19861;42.868;74.608;2022-07-29T05:59:54;29.10;40.50
33528;DHT22;19861;42.868;74.608;2022-07-29T06:02:20;29.20;40.70
33528;DHT22;19861;42.868;74.608;2022-07-29T06:04:46;29.30;40.00
33528;DHT22;19861;42.868;74.608;2022-07-29T06:07:12;29.20;40.60
33528;DHT22;19861;42.868;74.608;2022-07-29T06:09:38;29.30;40.80
33528;DHT22;19861;42.868;74.608;2022-07-29T06:12:05;29.20;40.40
33528;DHT22;19861;42.868;74.608;2022-07-29T06:14:31;29.50;39.80
33528;DHT22;19861;42.868;74.608;2022-07-29T06:16:58;29.60;39.30
33528;DHT22;19861;42.868;74.608;2022-07-29T06:19:24;29.80;38.70
33528;DHT22;19861;42.868;74.608;2022-07-29T06:21:50;30.00;37.20
33528;DHT22;19861;42.868;74.608;2022-07-29T06:24:16;29.80;38.10
33528;DHT22;19861;42.868;74.608;2022-07-29T06:26:42;29.70;39.50
33528;DHT22;19861;42.868;74.608;2022-07-29T06:29:12;29.50;38.70
33528;DHT22;19861;42.868;74.608;2022-07-29T06:31:41;29.60;38.80
33528;DHT22;19861;42.868;74.608;2022-07-29T06:34:11;29.70;39.20
33528;DHT22;19861;42.868;74.608;2022-07-29T06:36:37;30.00;38.60
33528;DHT22;19861;42.868;74.608;2022-07-29T06:39:08;29.90;38.50
33528;DHT22;19861;42.868;74.608;2022-07-29T06:41:34;30.00;39.40
33528;DHT22;19861;42.868;74.608;2022-07-29T06:44:01;30.30;38.70
33528;DHT22;19861;42.868;74.608;2022-07-29T06:46:27;30.50;38.10
33528;DHT22;19861;42.868;74.608;2022-07-29T06:48:54;30.40;35.70
33528;DHT22;19861;42.868;74.608;2022-07-29T06:51:34;30.70;37.10
33528;DHT22;19861;42.868;74.608;2022-07-29T06:54:00;30.30;37.50
33528;DHT22;19861;42.868;74.608;2022-07-29T06:56:27;30.20;37.60
33528;DHT22;19861;42.868;74.608;2022-07-29T06:58:53;30.10;38.30
33528;DHT22;19861;42.868;74.608;2022-07-29T07:01:19;30.20;37.90
33528;DHT22;19861;42.868;74.608;2022-07-29T07:03:46;30.40;38.20
33528;DHT22;19861;42.868;74.608;2022-07-29T07:06:12;30.80;37.90
33528;DHT22;19861;42.868;74.608;2022-07-29T07:08:38;31.20;37.40
33528;DHT22;19861;42.868;74.608;2022-07-29T07:11:04;31.00;37.50
33528;DHT22;19861;42.868;74.608;2022-07-29T07:13:31;30.70;39.40
33528;DHT22;19861;42.868;74.608;2022-07-29T07:16:01;30.90;37.30
33528;DHT22;19861;42.868;74.608;2022-07-29T07:18:27;30.60;37.60
33528;DHT22;19861;42.868;74.608;2022-07-29T07:20:53;30.60;38.50
33528;DHT22;19861;42.868;74.608;2022-07-29T07:23:19;31.00;37.00
33528;DHT22;19861;42.868;74.608;2022-07-29T07:25:45;31.10;37.30
33528;DHT22;19861;42.868;74.608;2022-07-29T07:28:14;30.80;37.30
33528;DHT22;19861;42.868;74.608;2022-07-29T07:30:44;31.00;37.60
33528;DHT22;19861;42.868;74.608;2022-07-29T07:33:10;30.70;37.90
33528;DHT22;19861;42.868;74.608;2022-07-29T07:35:36;31.00;37.60
33528;DHT22;19861;42.868;74.608;2022-07-29T07:38:02;31.00;36.80
33528;DHT22;19861;42.868;74.608;2022-07-29T07:40:29;31.40;37.50
33528;DHT22;19861;42.868;74.608;2022-07-29T07:42:55;31.30;37.00
33528;DHT22;19861;42.868;74.608;2022-07-29T07:45:23;30.70;38.20
33528;DHT22;19861;42.868;74.608;2022-07-29T07:47:58;30.80;37.90
33528;DHT22;19861;42.868;74.608;2022-07-29T07:50:24;31.50;37.00
33528;DHT22;19861;42.868;74.608;2022-07-29T07:52:52;32.10;36.90
33528;DHT22;19861;42.868;74.608;2022-07-29T07:55:19;32.30;35.90
33528;DHT22;19861;42.868;74.608;2022-07-29T07:58:01;32.70;35.60
33528;DHT22;19861;42.868;74.608;2022-07-29T08:00:27;32.70;34.10
33528;DHT22;19861;42.868;74.608;2022-07-29T08:02:53;32.60;34.20
33528;DHT22;19861;42.868;74.608;2022-07-29T08:05:19;32.60;34.20
33528;DHT22;19861;42.868;74.608;2022-07-29T08:07:46;31.80;35.70
33528;DHT22;19861;42.868;74.608;2022-07-29T08:10:14;31.10;36.50
33528;DHT22;19861;42.868;74.608;2022-07-29T08:12:40;31.10;36.60
33528;DHT22;19861;42.868;74.608;2022-07-29T08:15:07;31.40;35.50
33528;DHT22;19861;42.868;74.608;2022-07-29T08:17:33;31.60;35.90
33528;DHT22;19861;42.868;74.608;2022-07-29T08:19:59;31.90;35.70
33528;DHT22;19861;42.868;74.608;2022-07-29T08:22:25;32.20;35.30
33528;DHT22;19861;42.868;74.608;2022-07-29T08:24:51;32.40;35.00
33528;DHT22;19861;42.868;74.608;2022-07-29T08:27:18;31.90;35.80
33528;DHT22;19861;42.868;74.608;2022-07-29T08:29:45;31.90;36.30
33528;DHT22;19861;42.868;74.608;2022-07-29T08:32:11;32.30;36.20
33528;DHT22;19861;42.868;74.608;2022-07-29T08:34:37;32.70;34.30
33528;DHT22;19861;42.868;74.608;2022-07-29T08:37:06;32.80;34.50
33528;DHT22;19861;42.868;74.608;2022-07-29T08:39:32;32.90;34.80
33528;DHT22;19861;42.868;74.608;2022-07-29T08:41:58;32.50;34.90
33528;DHT22;19861;42.868;74.608;2022-07-29T08:44:27;32.10;35.30
33528;DHT22;19861;42.868;74.608;2022-07-29T08:46:54;31.80;35.90
33528;DHT22;19861;42.868;74.608;2022-07-29T08:49:20;32.10;35.20
33528;DHT22;19861;42.868;74.608;2022-07-29T08:51:46;32.00;35.20
33528;DHT22;19861;42.868;74.608;2022-07-29T08:54:17;32.70;33.80
33528;DHT22;19861;42.868;74.608;2022-07-29T08:56:44;31.90;34.60
33528;DHT22;19861;42.868;74.608;2022-07-29T08:59:11;31.80;35.60
33528;DHT22;19861;42.868;74.608;2022-07-29T09:01:38;32.30;36.20
33528;DHT22;19861;42.868;74.608;2022-07-29T09:04:09;32.20;36.50
33528;DHT22;19861;42.868;74.608;2022-07-29T09:06:39;31.90;36.00
33528;DHT22;19861;42.868;74.608;2022-07-29T09:09:08;31.50;36.70
33528;DHT22;19861;42.868;74.608;2022-07-29T09:11:34;31.70;36.60
33528;DHT22;19861;42.868;74.608;2022-07-29T09:14:01;31.40;37.10
33528;DHT22;19861;42.868;74.608;2022-07-29T09:16:44;31.70;36.50
33528;DHT22;19861;42.868;74.608;2022-07-29T09:19:22;32.00;36.20
33528;DHT22;19861;42.868;74.608;2022-07-29T09:21:48;32.20;36.20
33528;DHT22;19861;42.868;74.608;2022-07-29T09:24:24;32.50;35.10
33528;DHT22;19861;42.868;74.608;2022-07-29T09:26:51;32.90;35.30
33528;DHT22;19861;42.868;74.608;2022-07-29T09:29:18;33.10;34.80
33528;DHT22;19861;42.868;74.608;2022-07-29T09:31:47;33.40;34.00
33528;DHT22;19861;42.868;74.608;2022-07-29T09:34:15;33.50;34.30
33528;DHT22;19861;42.868;74.608;2022-07-29T09:36:46;33.20;34.40
33528;DHT22;19861;42.868;74.608;2022-07-29T09:39:14;33.10;34.70
33528;DHT22;19861;42.868;74.608;2022-07-29T09:41:48;33.10;35.10
33528;DHT22;19861;42.868;74.608;2022-07-29T09:44:15;32.80;35.50
33528;DHT22;19861;42.868;74.608;2022-07-29T09:46:58;32.60;36.40
33528;DHT22;19861;42.868;74.608;2022-07-29T09:49:28;32.30;35.90
33528;DHT22;19861;42.868;74.608;2022-07-29T09:52:23;32.10;35.90
33528;DHT22;19861;42.868;74.608;2022-07-29T09:54:50;32.10;36.50
33528;DHT22;19861;42.868;74.608;2022-07-29T09:57:25;32.20;36.20
33528;DHT22;19861;42.868;74.608;2022-07-29T10:00:04;31.70;36.40
33528;DHT22;19861;42.868;74.608;2022-07-29T10:02:36;32.10;36.10
33528;DHT22;19861;42.868;74.608;2022-07-29T10:05:05;32.40;36.30
33528;DHT22;19861;42.868;74.608;2022-07-29T10:07:51;32.50;35.30
33528;DHT22;19861;42.868;74.608;2022-07-29T10:10:28;32.10;35.30
33528;DHT22;19861;42.868;74.608;2022-07-29T10:12:56;32.20;35.00
33528;DHT22;19861;42.868;74.608;2022-07-29T10:15:28;32.40;35.10
33528;DHT22;19861;42.868;74.608;2022-07-29T10:18:09;32.40;34.80
33528;DHT22;19861;42.868;74.608;2022-07-29T10:20:37;32.10;34.20
33528;DHT22;19861;42.868;74.608;2022-07-29T10:23:04;32.10;35.30
33528;DHT22;19861;42.868;74.608;2022-07-29T10:25:30;32.40;35.10
33528;DHT22;19861;42.868;74.608;2022-07-29T10:27:57;32.70;34.30
33528;DHT22;19861;42.868;74.608;2022-07-29T10:30:25;32.80;33.80
33528;DHT22;19861;42.868;74.608;2022-07-29T10:46:54;31.80;34.60
33528;DHT22;19861;42.868;74.608;2022-07-29T10:49:24;31.60;35.00
33528;DHT22;19861;42.868;74.608;2022-07-29T10:59:50;31.60;35.70
33528;DHT22;19861;42.868;74.608;2022-07-29T11:05:12;31.90;34.90
33528;DHT22;19861;42.868;74.608;2022-07-29T11:07:40;31.90;35.30
33528;DHT22;19861;42.868;74.608;2022-07-29T11:10:25;31.90;34.70
33528;DHT22;19861;42.868;74.608;2022-07-29T11:12:51;31.70;35.20
33528;DHT22;19861;42.868;74.608;2022-07-29T11:15:20;31.80;35.00
33528;DHT22;19861;42.868;74.608;2022-07-29T11:25:43;30.90;36.10
33528;DHT22;19861;42.868;74.608;2022-07-29T11:28:15;31.00;36.40
33528;DHT22;19861;42.868;74.608;2022-07-29T11:30:53;31.00;36.20
33528;DHT22;19861;42.868;74.608;2022-07-29T11:33:31;31.30;36.60
33528;DHT22;19861;42.868;74.608;2022-07-29T11:36:16;31.40;36.40
33528;DHT22;19861;42.868;74.608;2022-07-29T11:38:42;31.60;36.10
33528;DHT22;19861;42.868;74.608;2022-07-29T11:43:53;31.50;36.30
33528;DHT22;19861;42.868;74.608;2022-07-29T11:46:56;31.70;36.60
33528;DHT22;19861;42.868;74.608;2022-07-29T11:49:24;31.80;35.40
33528;DHT22;19861;42.868;74.608;2022-07-29T11:51:55;31.90;35.70
33528;DHT22;19861;42.868;74.608;2022-07-29T11:54:28;32.30;35.30
33528;DHT22;19861;42.868;74.608;2022-07-29T11:56:58;32.40;35.60
33528;DHT22;19861;42.868;74.608;2022-07-29T11:59:25;32.50;34.40
33528;DHT22;19861;42.868;74.608;2022-07-29T12:01:55;32.60;34.20
33528;DHT22;19861;42.868;74.608;2022-07-29T12:04:21;32.30;34.80
33528;DHT22;19861;42.868;74.608;2022-07-29T12:06:53;32.20;34.80
33528;DHT22;19861;42.868;74.608;2022-07-29T12:09:21;32.20;34.90
33528;DHT22;19861;42.868;74.608;2022-07-29T12:11:48;32.10;34.90
33528;DHT22;19861;42.868;74.608;2022-07-29T12:14:31;32.10;35.50
33528;DHT22;19861;42.868;74.608;2022-07-29T12:16:58;31.80;35.10
33528;DHT22;19861;42.868;74.608;2022-07-29T12:19:27;31.90;35.10
33528;DHT22;19861;42.868;74.608;2022-07-29T12:21:54;31.90;35.10
33528;DHT22;19861;42.868;74.608;2022-07-29T12:24:21;31.30;36.00
33528;DHT22;19861;42.868;74.608;2022-07-29T12:26:52;31.20;35.90
33528;DHT22;19861;42.868;74.608;2022-07-29T12:29:19;31.10;36.40
33528;DHT22;19861;42.868;74.608;2022-07-29T12:31:45;31.20;36.20
33528;DHT22;19861;42.868;74.608;2022-07-29T12:34:13;31.30;36.10
33528;DHT22;19861;42.868;74.608;2022-07-29T12:36:41;31.30;36.20
33528;DHT22;19861;42.868;74.608;2022-07-29T12:39:09;31.10;36.10
33528;DHT22;19861;42.868;74.608;2022-07-29T12:41:38;31.20;36.50
33528;DHT22;19861;42.868;74.608;2022-07-29T12:44:05;31.10;36.50
33528;DHT22;19861;42.868;74.608;2022-07-29T12:46:31;31.10;36.50
33528;DHT22;19861;42.868;74.608;2022-07-29T12:48:57;31.30;36.10
33528;DHT22;19861;42.868;74.608;2022-07-29T12:51:35;31.00;36.60
33528;DHT22;19861;42.868;74.608;2022-07-29T12:54:14;30.80;37.10
33528;DHT22;19861;42.868;74.608;2022-07-29T12:56:43;30.90;36.90
33528;DHT22;19861;42.868;74.608;2022-07-29T12:59:19;30.80;37.30
33528;DHT22;19861;42.868;74.608;2022-07-29T13:01:50;31.10;36.70
33528;DHT22;19861;42.868;74.608;2022-07-29T13:04:28;31.10;36.60
33528;DHT22;19861;42.868;74.608;2022-07-29T13:07:05;31.10;36.50
33528;DHT22;19861;42.868;74.608;2022-07-29T13:09:40;31.20;36.20
33528;DHT22;19861;42.868;74.608;2022-07-29T13:12:08;31.30;36.10
33528;DHT22;19861;42.868;74.608;2022-07-29T13:14:43;31.40;35.80
33528;DHT22;19861;42.868;74.608;2022-07-29T13:17:11;31.30;35.60
33528;DHT22;19861;42.868;74.608;2022-07-29T13:19:48;31.30;35.20
33528;DHT22;19861;42.868;74.608;2022-07-29T13:22:20;31.40;35.80
33528;DHT22;19861;42.868;74.608;2022-07-29T13:27:17;30.60;37.30
33528;DHT22;19861;42.868;74.608;2022-07-29T13:29:44;30.50;36.90
33528;DHT22;19861;42.868;74.608;2022-07-29T13:32:11;30.60;37.40
33528;DHT22;19861;42.868;74.608;2022-07-29T13:34:37;30.70;37.10
33528;DHT22;19861;42.868;74.608;2022-07-29T13:37:03;30.70;36.90
33528;DHT22;19861;42.868;74.608;2022-07-29T13:39:29;30.70;38.40
33528;DHT22;19861;42.868;74.608;2022-07-29T13:41:55;30.60;37.70
33528;DHT22;19861;42.868;74.608;2022-07-29T13:44:21;30.50;37.90
33528;DHT22;19861;42.868;74.608;2022-07-29T13:46:47;30.50;37.30
33528;DHT22;19861;42.868;74.608;2022-07-29T13:49:13;30.50;37.20
33528;DHT22;19861;42.868;74.608;2022-07-29T13:51:40;30.60;37.60
33528;DHT22;19861;42.868;74.608;2022-07-29T13:54:06;30.50;37.70
33528;DHT22;19861;42.868;74.608;2022-07-29T13:56:32;30.40;37.70
33528;DHT22;19861;42.868;74.608;2022-07-29T13:58:58;30.40;37.90
33528;DHT22;19861;42.868;74.608;2022-07-29T14:01:24;30.10;38.30
33528;DHT22;19861;42.868;74.608;2022-07-29T14:03:50;30.00;38.30
33528;DHT22;19861;42.868;74.608;2022-07-29T14:06:16;30.30;38.50
33528;DHT22;19861;42.868;74.608;2022-07-29T14:08:42;30.00;38.40
33528;DHT22;19861;42.868;74.608;2022-07-29T14:11:08;29.90;38.80
33528;DHT22;19861;42.868;74.608;2022-07-29T14:13:34;30.00;39.10
33528;DHT22;19861;42.868;74.608;2022-07-29T14:16:01;29.80;38.40
33528;DHT22;19861;42.868;74.608;2022-07-29T14:18:26;29.90;38.80
33528;DHT22;19861;42.868;74.608;2022-07-29T14:20:53;29.90;38.60
33528;DHT22;19861;42.868;74.608;2022-07-29T14:23:19;30.00;39.10
33528;DHT22;19861;42.868;74.608;2022-07-29T14:25:45;29.90;39.40
33528;DHT22;19861;42.868;74.608;2022-07-29T14:28:11;29.90;39.60
33528;DHT22;19861;42.868;74.608;2022-07-29T14:30:38;29.70;39.60
33528;DHT22;19861;42.868;74.608;2022-07-29T14:33:05;29.70;40.00
33528;DHT22;19861;42.868;74.608;2022-07-29T14:35:31;29.60;39.70
33528;DHT22;19861;42.868;74.608;2022-07-29T14:37:57;29.70;40.10
33528;DHT22;19861;42.868;74.608;2022-07-29T14:40:23;29.60;40.20
33528;DHT22;19861;42.868;74.608;2022-07-29T14:42:49;29.80;40.40
33528;DHT22;19861;42.868;74.608;2022-07-29T14:45:15;29.70;40.10
33528;DHT22;19861;42.868;74.608;2022-07-29T14:47:41;29.50;40.50
33528;DHT22;19861;42.868;74.608;2022-07-29T14:50:07;29.20;40.50
33528;DHT22;19861;42.868;74.608;2022-07-29T14:52:34;29.20;40.30
33528;DHT22;19861;42.868;74.608;2022-07-29T14:55:00;29.20;40.50
33528;DHT22;19861;42.868;74.608;2022-07-29T14:57:26;29.20;40.60
33528;DHT22;19861;42.868;74.608;2022-07-29T14:59:52;29.00;40.60
33528;DHT22;19861;42.868;74.608;2022-07-29T15:02:18;29.00;40.50
33528;DHT22;19861;42.868;74.608;2022-07-29T15:04:44;29.10;40.50
33528;DHT22;19861;42.868;74.608;2022-07-29T15:07:11;29.10;40.40
33528;DHT22;19861;42.868;74.608;2022-07-29T15:09:37;29.00;40.70
33528;DHT22;19861;42.868;74.608;2022-07-29T15:12:04;28.90;41.20
33528;DHT22;19861;42.868;74.608;2022-07-29T15:14:30;29.10;40.90
33528;DHT22;19861;42.868;74.608;2022-07-29T15:16:57;29.20;40.50
33528;DHT22;19861;42.868;74.608;2022-07-29T15:19:23;29.20;40.70
33528;DHT22;19861;42.868;74.608;2022-07-29T15:21:49;29.10;40.60
33528;DHT22;19861;42.868;74.608;2022-07-29T15:24:18;29.20;41.00
33528;DHT22;19861;42.868;74.608;2022-07-29T15:26:45;29.30;40.60
33528;DHT22;19861;42.868;74.608;2022-07-29T15:29:12;29.30;40.60
33528;DHT22;19861;42.868;74.608;2022-07-29T15:31:38;29.40;40.70
33528;DHT22;19861;42.868;74.608;2022-07-29T15:34:05;29.60;41.00
33528;DHT22;19861;42.868;74.608;2022-07-29T15:36:31;29.50;41.10
33528;DHT22;19861;42.868;74.608;2022-07-29T15:38:57;29.40;41.20
33528;DHT22;19861;42.868;74.608;2022-07-29T15:41:23;29.40;41.30
33528;DHT22;19861;42.868;74.608;2022-07-29T15:43:49;29.30;41.60
33528;DHT22;19861;42.868;74.608;2022-07-29T15:46:17;29.30;42.10
33528;DHT22;19861;42.868;74.608;2022-07-29T15:49:04;29.20;39.90
33528;DHT22;19861;42.868;74.608;2022-07-29T15:51:30;28.20;99.90
33528;DHT22;19861;42.868;74.608;2022-07-29T15:53:56;25.90;99.90
33528;DHT22;19861;42.868;74.608;2022-07-29T15:56:23;23.80;99.90
33528;DHT22;19861;42.868;74.608;2022-07-29T15:58:50;22.80;99.90
33528;DHT22;19861;42.868;74.608;2022-07-29T16:01:16;22.50;99.90
33528;DHT22;19861;42.868;74.608;2022-07-29T16:03:42;22.30;99.90
33528;DHT22;19861;42.868;74.608;2022-07-29T16:06:08;22.40;99.90
33528;DHT22;19861;42.868;74.608;2022-07-29T16:08:34;22.70;99.90
33528;DHT22;19861;42.868;74.608;2022-07-29T16:11:01;22.90;99.90
33528;DHT22;19861;42.868;74.608;2022-07-29T16:13:27;22.90;99.90